Terminal Aerodrome Forecast
Issued by NWS Sterling, VA

Current Version | Previous Version | Graphics & Text | Print | Product List | Glossary Off
Versions: 1 2 3 4 5 6 7 8 9 10 11 12 13 14 15 16 17 18 19

000
FTUS41 KLWX 011722
TAFMRB
TAF
KMRB 011722Z 0118/0218 28008KT P6SM FEW050 SCT250
     FM020400 31004KT P6SM FEW250
     FM021600 25004KT P6SM FEW070 FEW250=

USA.gov is the U.S. government's official web portal to all federal, state and local government web resources and services.